createdAt,value
2023-05-24T00:00:38.800Z,6.97
2023-05-24T00:03:06.864Z,5.53
2023-05-24T00:05:37.370Z,6.10
2023-05-24T00:08:05.722Z,6.10
2023-05-24T00:10:34.333Z,5.80
2023-05-24T00:13:02.614Z,5.17
2023-05-24T00:15:31.042Z,5.70
2023-05-24T00:17:59.773Z,5.90
2023-05-24T00:20:27.732Z,5.90
2023-05-24T00:22:56.314Z,5.93
2023-05-24T00:25:24.237Z,6.10
2023-05-24T00:27:52.662Z,5.30
2023-05-24T00:30:20.949Z,6.27
2023-05-24T00:32:48.967Z,6.30
2023-05-24T00:35:17.327Z,4.63
2023-05-24T00:37:46.030Z,5.30
2023-05-24T00:40:14.063Z,5.43
2023-05-24T00:42:42.564Z,5.90
2023-05-24T00:45:11.360Z,4.83
2023-05-24T00:47:39.871Z,5.47
2023-05-24T00:50:09.648Z,5.40
2023-05-24T00:52:38.217Z,5.50
2023-05-24T00:55:06.723Z,5.13
2023-05-24T00:57:35.618Z,5.13
2023-05-24T01:00:05.823Z,5.10
2023-05-24T01:02:34.189Z,5.70
2023-05-24T01:05:03.396Z,5.80
2023-05-24T01:07:42.112Z,5.37
2023-05-24T01:10:28.819Z,5.30
2023-05-24T01:13:04.747Z,5.20
2023-05-24T01:15:53.226Z,5.67
2023-05-24T01:18:24.762Z,6.37
2023-05-24T01:20:57.163Z,6.37
2023-05-24T01:23:35.870Z,5.60
2023-05-24T01:26:14.021Z,5.50
2023-05-24T01:28:43.396Z,5.00
2023-05-24T01:33:40.247Z,5.00
2023-05-24T01:36:08.215Z,5.50
2023-05-24T01:38:36.789Z,5.70
2023-05-24T01:41:06.660Z,6.00
2023-05-24T01:43:36.615Z,5.87
2023-05-24T01:46:23.368Z,5.23
2023-05-24T01:48:56.295Z,5.13
2023-05-24T01:51:26.227Z,5.23
2023-05-24T01:53:55.496Z,5.37
2023-05-24T01:56:24.029Z,5.90
2023-05-24T01:58:53.529Z,6.40
2023-05-24T02:01:21.556Z,5.50
2023-05-24T02:03:51.588Z,5.27
2023-05-24T02:06:20.401Z,5.37
2023-05-24T02:08:48.314Z,5.97
2023-05-24T02:11:16.751Z,5.80
2023-05-24T02:13:45.098Z,5.93
2023-05-24T02:16:14.131Z,5.73
2023-05-24T02:18:43.666Z,6.30
2023-05-24T02:21:12.605Z,5.67
2023-05-24T02:23:41.182Z,5.87
2023-05-24T02:26:11.113Z,6.00
2023-05-24T02:28:39.083Z,6.93
2023-05-24T02:31:07.719Z,6.60
2023-05-24T02:33:38.053Z,6.73
2023-05-24T02:36:06.675Z,6.53
2023-05-24T02:38:35.291Z,7.03
2023-05-24T02:41:04.029Z,7.10
2023-05-24T02:43:31.974Z,7.00
2023-05-24T02:46:00.629Z,8.30
2023-05-24T02:48:29.080Z,6.93
2023-05-24T02:50:57.677Z,7.37
2023-05-24T02:53:26.046Z,6.90
2023-05-24T02:55:54.629Z,7.17
2023-05-24T02:58:23.517Z,7.20
2023-05-24T03:00:52.014Z,6.87
2023-05-24T03:03:20.558Z,7.43
2023-05-24T03:05:48.858Z,7.10
2023-05-24T03:08:16.805Z,7.70
2023-05-24T03:10:45.451Z,8.60
2023-05-24T03:13:13.775Z,8.70
2023-05-24T03:15:42.938Z,6.47
2023-05-24T03:18:11.445Z,7.07
2023-05-24T03:20:40.047Z,6.60
2023-05-24T03:23:09.728Z,6.57
2023-05-24T03:25:37.923Z,6.83
2023-05-24T03:28:05.785Z,6.10
2023-05-24T03:30:34.761Z,5.20
2023-05-24T03:33:03.282Z,5.77
2023-05-24T03:35:31.225Z,5.17
2023-05-24T03:37:59.608Z,4.73
2023-05-24T03:40:29.140Z,5.70
2023-05-24T03:42:57.416Z,5.27
2023-05-24T03:45:34.509Z,5.40
2023-05-24T03:47:55.252Z,4.87
2023-05-24T03:50:23.688Z,4.70
2023-05-24T03:52:52.462Z,5.07
2023-05-24T03:55:21.262Z,5.03
2023-05-24T03:57:49.647Z,4.53
2023-05-24T04:00:18.631Z,5.37
2023-05-24T04:02:46.612Z,4.87
2023-05-24T04:05:15.616Z,5.00
2023-05-24T04:07:45.612Z,5.40
2023-05-24T04:10:13.592Z,5.00
2023-05-24T04:12:42.250Z,4.70
2023-05-24T04:15:12.923Z,6.83
2023-05-24T04:17:42.553Z,5.07
2023-05-24T04:20:11.263Z,5.43
2023-05-24T04:22:39.494Z,5.27
2023-05-24T04:25:08.075Z,5.73
2023-05-24T04:27:37.028Z,6.43
2023-05-24T04:35:00.232Z,5.60
2023-05-24T04:37:29.369Z,6.17
2023-05-24T04:39:57.377Z,6.67
2023-05-24T04:42:26.203Z,6.53
2023-05-24T04:44:54.676Z,6.30
2023-05-24T04:47:23.210Z,6.47
2023-05-24T04:49:52.238Z,5.80
2023-05-24T04:52:21.040Z,5.67
2023-05-24T04:54:50.432Z,5.97
2023-05-24T04:57:18.431Z,6.00
2023-05-24T04:59:46.308Z,6.27
2023-05-24T05:02:14.268Z,6.63
2023-05-24T05:04:42.300Z,6.17
2023-05-24T05:07:11.233Z,5.40
2023-05-24T05:09:39.695Z,6.90
2023-05-24T05:12:07.685Z,6.57
2023-05-24T05:14:36.144Z,6.57
2023-05-24T05:17:04.530Z,6.53
2023-05-24T05:19:33.029Z,6.43
2023-05-24T05:24:28.095Z,7.12
2023-05-24T05:26:55.989Z,6.47
2023-05-24T05:29:24.717Z,6.97
2023-05-24T05:31:52.755Z,7.57
2023-05-24T05:34:21.749Z,7.83
2023-05-24T05:36:49.627Z,8.10
2023-05-24T05:39:18.403Z,8.83
2023-05-24T05:44:15.063Z,7.80
2023-05-24T05:46:45.379Z,8.63
2023-05-24T05:49:15.688Z,7.73
2023-05-24T05:51:44.233Z,8.27
2023-05-24T05:54:13.782Z,7.10
2023-05-24T05:56:47.266Z,7.30
2023-05-24T05:59:16.586Z,7.60
2023-05-24T06:01:46.873Z,7.97
2023-05-24T06:04:15.144Z,8.50
2023-05-24T06:06:45.898Z,8.00
2023-05-24T06:09:14.589Z,8.20
2023-05-24T06:14:14.026Z,7.08
2023-05-24T06:16:42.640Z,6.43
2023-05-24T06:19:11.118Z,7.03
2023-05-24T06:21:41.565Z,8.07
2023-05-24T06:24:10.422Z,8.53
2023-05-24T06:26:39.013Z,8.33
2023-05-24T06:29:07.489Z,8.33
2023-05-24T06:31:35.565Z,9.30
2023-05-24T06:34:04.608Z,8.90
2023-05-24T06:36:35.256Z,8.43
2023-05-24T06:39:04.650Z,8.47
2023-05-24T06:41:32.658Z,7.83
2023-05-24T06:44:01.644Z,7.83
2023-05-24T06:46:30.424Z,7.63
2023-05-24T06:51:26.066Z,7.25
2023-05-24T06:53:54.760Z,7.90
2023-05-24T06:58:50.601Z,8.45
2023-05-24T07:01:19.297Z,7.50
2023-05-24T07:03:48.300Z,7.30
2023-05-24T07:06:17.170Z,8.03
2023-05-24T07:08:45.890Z,7.87
2023-05-24T07:11:13.931Z,7.77
2023-05-24T07:13:42.530Z,8.50
2023-05-24T07:16:12.414Z,8.60
2023-05-24T07:18:41.899Z,7.97
2023-05-24T07:21:10.719Z,8.27
2023-05-24T07:23:39.265Z,7.50
2023-05-24T07:26:07.975Z,6.93
2023-05-24T07:28:38.134Z,7.63
2023-05-24T07:31:10.472Z,6.27
2023-05-24T07:33:39.330Z,7.27
2023-05-24T07:36:08.196Z,6.33
2023-05-24T07:38:36.247Z,6.40
2023-05-24T07:41:05.423Z,6.80
2023-05-24T07:43:33.925Z,6.90
2023-05-24T07:46:02.570Z,6.40
2023-05-24T07:48:30.548Z,6.67
2023-05-24T07:50:59.155Z,6.53
2023-05-24T07:53:27.981Z,7.27
2023-05-24T07:55:56.528Z,6.97
2023-05-24T07:58:25.001Z,6.60
2023-05-24T08:00:53.006Z,6.30
2023-05-24T08:03:21.384Z,7.33
2023-05-24T08:05:49.417Z,7.57
2023-05-24T08:08:17.927Z,6.37
2023-05-24T08:10:46.010Z,6.17
2023-05-24T08:13:13.938Z,6.13
2023-05-24T08:15:43.039Z,6.63
2023-05-24T08:18:11.403Z,5.43
2023-05-24T08:20:41.317Z,5.10
2023-05-24T08:23:10.153Z,5.67
2023-05-24T08:25:38.152Z,5.73
2023-05-24T08:28:06.589Z,5.30
2023-05-24T08:30:35.886Z,5.30
2023-05-24T08:33:04.643Z,4.53
2023-05-24T08:38:00.359Z,3.47
2023-05-24T08:40:28.909Z,3.57
2023-05-24T08:42:58.675Z,3.43
2023-05-24T08:45:27.706Z,3.60
2023-05-24T08:47:57.030Z,3.47
2023-05-24T08:50:25.976Z,3.43
2023-05-24T08:55:22.369Z,3.25
2023-05-24T08:57:52.021Z,3.07
2023-05-24T09:00:20.180Z,3.43
2023-05-24T09:02:48.416Z,2.97
2023-05-24T09:05:20.267Z,2.97
2023-05-24T09:07:49.732Z,3.00
2023-05-24T09:10:19.662Z,3.20
2023-05-24T09:12:49.905Z,3.00
2023-05-24T09:15:17.938Z,3.00
2023-05-24T09:17:46.677Z,2.97
2023-05-24T09:20:15.262Z,2.80
2023-05-24T09:22:45.140Z,2.90
2023-05-24T09:25:15.836Z,3.00
2023-05-24T09:27:48.248Z,3.13
2023-05-24T09:30:17.061Z,3.10
2023-05-24T09:32:53.172Z,2.60
2023-05-24T09:35:21.798Z,2.87
2023-05-24T09:37:50.393Z,2.97
2023-05-24T09:40:20.770Z,2.67
2023-05-24T09:42:50.929Z,3.30
2023-05-24T09:45:19.418Z,2.83
2023-05-24T09:47:47.957Z,2.90
2023-05-24T09:50:18.223Z,3.10
2023-05-24T09:52:46.995Z,2.90
2023-05-24T09:55:19.352Z,2.83
2023-05-24T09:57:55.364Z,3.53
2023-05-24T10:00:24.619Z,2.83
2023-05-24T10:03:03.486Z,2.50
2023-05-24T10:05:32.219Z,2.03
2023-05-24T10:08:01.267Z,2.27
2023-05-24T10:10:34.335Z,3.53
2023-05-24T10:13:03.852Z,2.40
2023-05-24T10:15:32.218Z,2.47
2023-05-24T10:18:02.500Z,2.33
2023-05-24T10:20:31.175Z,2.60
2023-05-24T10:23:02.316Z,2.73
2023-05-24T10:25:30.958Z,2.60
2023-05-24T10:27:59.781Z,2.80
2023-05-24T10:32:57.304Z,2.60
2023-05-24T10:35:27.966Z,2.70
2023-05-24T10:37:58.179Z,2.63
2023-05-24T10:40:27.009Z,2.87
2023-05-24T10:42:55.656Z,2.47
2023-05-24T10:45:25.889Z,2.10
2023-05-24T10:47:55.246Z,2.60
2023-05-24T10:50:24.099Z,2.53
2023-05-24T10:55:22.745Z,3.85
2023-05-24T10:57:51.308Z,2.97
2023-05-24T11:03:05.540Z,2.80
2023-05-24T11:05:37.974Z,2.70
2023-05-24T11:08:08.409Z,2.60
2023-05-24T11:10:36.402Z,2.93
2023-05-24T11:13:04.708Z,2.47
2023-05-24T11:15:33.561Z,3.10
2023-05-24T11:18:15.262Z,3.13
2023-05-24T11:20:45.770Z,2.97
2023-05-24T11:23:16.176Z,2.80
2023-05-24T11:25:44.671Z,4.30
2023-05-24T11:28:13.521Z,2.40
2023-05-24T11:30:45.345Z,2.30
2023-05-24T11:33:19.071Z,2.30
2023-05-24T11:35:48.344Z,3.00
2023-05-24T11:38:17.560Z,2.60
2023-05-24T11:40:47.435Z,3.63
2023-05-24T11:43:16.952Z,3.17
2023-05-24T11:45:46.009Z,2.70
2023-05-24T11:48:14.874Z,2.43
2023-05-24T11:53:14.604Z,3.23
2023-05-24T11:55:43.393Z,3.37
2023-05-24T11:58:12.996Z,3.37
2023-05-24T12:00:41.881Z,2.80
2023-05-24T12:03:11.295Z,3.20
2023-05-24T12:05:39.503Z,2.87
2023-05-24T12:08:12.400Z,2.43
2023-05-24T12:10:41.456Z,2.80
2023-05-24T12:13:23.874Z,2.73
2023-05-24T12:15:55.835Z,3.00
2023-05-24T12:18:25.214Z,2.30
2023-05-24T12:20:54.184Z,2.87
2023-05-24T12:23:24.300Z,3.00
2023-05-24T12:25:52.896Z,2.70
2023-05-24T12:28:23.547Z,2.83
2023-05-24T12:30:52.105Z,2.63
2023-05-24T12:33:21.381Z,2.87
2023-05-24T12:35:50.728Z,2.73
2023-05-24T12:38:22.297Z,3.40
2023-05-24T12:41:03.877Z,2.90
2023-05-24T12:43:21.504Z,4.17
2023-05-24T12:45:50.339Z,2.67
2023-05-24T12:48:20.126Z,3.13
2023-05-24T12:50:48.762Z,2.60
2023-05-24T12:53:17.243Z,2.90
2023-05-24T12:55:45.415Z,2.77
2023-05-24T12:58:14.904Z,3.00
2023-05-24T13:00:45.233Z,2.90
2023-05-24T13:03:13.810Z,2.97
2023-05-24T13:05:42.955Z,2.90
2023-05-24T13:08:11.624Z,2.30
2023-05-24T13:10:40.568Z,2.70
2023-05-24T13:13:09.427Z,2.93
2023-05-24T13:15:38.912Z,2.70
2023-05-24T13:18:07.550Z,2.67
2023-05-24T13:20:36.109Z,2.90
2023-05-24T13:23:04.767Z,2.97
2023-05-24T13:25:33.352Z,3.20
2023-05-24T13:28:01.320Z,2.67
2023-05-24T13:30:29.801Z,3.03
2023-05-24T13:32:59.941Z,2.90
2023-05-24T13:35:28.705Z,3.10
2023-05-24T13:37:58.180Z,3.20
2023-05-24T13:40:26.706Z,3.30
2023-05-24T13:42:55.865Z,2.70
2023-05-24T13:45:23.850Z,3.33
2023-05-24T13:47:53.520Z,3.30
2023-05-24T13:50:23.898Z,3.57
2023-05-24T13:52:53.195Z,3.93
2023-05-24T13:55:21.880Z,3.53
2023-05-24T13:57:52.277Z,3.07
2023-05-24T14:00:20.919Z,3.23
2023-05-24T14:02:49.711Z,3.77
2023-05-24T14:05:27.409Z,4.20
2023-05-24T14:07:48.260Z,4.07
2023-05-24T14:10:18.666Z,4.00
2023-05-24T14:12:56.123Z,3.87
2023-05-24T14:15:16.996Z,4.13
2023-05-24T14:17:45.331Z,3.63
2023-05-24T14:20:14.205Z,3.33
2023-05-24T14:25:11.130Z,3.40
2023-05-24T14:27:41.588Z,3.50
2023-05-24T14:30:10.697Z,3.07
2023-05-24T14:32:38.989Z,3.33
2023-05-24T14:35:08.138Z,3.17
2023-05-24T14:37:36.127Z,2.70
2023-05-24T14:40:06.110Z,3.33
2023-05-24T14:42:34.960Z,3.50
2023-05-24T14:45:04.519Z,3.00
2023-05-24T14:47:33.185Z,3.60
2023-05-24T14:50:01.837Z,3.03
2023-05-24T14:52:31.919Z,3.53
2023-05-24T14:55:00.599Z,3.50
2023-05-24T14:57:28.783Z,3.47
2023-05-24T14:59:57.466Z,3.40
2023-05-24T15:02:26.329Z,3.20
2023-05-24T15:04:55.186Z,3.40
2023-05-24T15:07:23.995Z,3.53
2023-05-24T15:09:52.380Z,3.60
2023-05-24T15:12:21.023Z,3.53
2023-05-24T15:14:49.501Z,3.40
2023-05-24T15:17:20.977Z,2.77
2023-05-24T15:19:48.385Z,3.23
2023-05-24T15:22:16.679Z,3.07
2023-05-24T15:24:45.169Z,3.00
2023-05-24T15:27:13.834Z,2.87
2023-05-24T15:29:42.424Z,2.30
2023-05-24T15:32:11.005Z,2.40
2023-05-24T15:34:39.791Z,2.73
2023-05-24T15:37:08.293Z,2.77
2023-05-24T15:39:37.008Z,2.70
2023-05-24T15:42:05.873Z,3.33
2023-05-24T15:44:33.882Z,3.03
2023-05-24T15:47:02.455Z,2.53
2023-05-24T15:49:31.338Z,2.50
2023-05-24T15:54:28.147Z,2.92
2023-05-24T15:56:56.724Z,2.33
2023-05-24T15:59:25.691Z,2.70
2023-05-24T16:04:21.661Z,2.60
2023-05-24T16:06:50.036Z,2.70
2023-05-24T16:09:18.617Z,2.87
2023-05-24T16:11:47.592Z,3.00
2023-05-24T16:14:16.699Z,3.10
2023-05-24T16:19:12.561Z,2.95
2023-05-24T16:21:41.149Z,3.03
2023-05-24T16:24:12.275Z,3.13
2023-05-24T16:26:40.970Z,2.90
2023-05-24T16:29:10.549Z,3.17
2023-05-24T16:31:39.182Z,3.40
2023-05-24T16:34:07.750Z,3.90
2023-05-24T16:36:37.590Z,3.70
2023-05-24T16:39:05.931Z,3.60
2023-05-24T16:41:35.542Z,3.60
2023-05-24T16:44:05.480Z,3.70
2023-05-24T16:46:34.365Z,3.77
2023-05-24T16:51:30.295Z,3.67
2023-05-24T16:53:58.768Z,3.43
2023-05-24T16:56:27.992Z,3.67
2023-05-24T16:58:56.913Z,3.80
2023-05-24T17:03:53.077Z,3.75
2023-05-24T17:06:21.130Z,3.37
2023-05-24T17:08:49.536Z,3.73
2023-05-24T17:11:19.823Z,5.07
2023-05-24T17:13:49.328Z,4.00
2023-05-24T17:16:18.116Z,3.63
2023-05-24T17:18:46.875Z,4.03
2023-05-24T17:21:15.590Z,4.23
2023-05-24T17:23:44.130Z,3.73
2023-05-24T17:26:14.254Z,3.80
2023-05-24T17:28:44.368Z,3.73
2023-05-24T17:31:16.375Z,3.20
2023-05-24T17:33:45.739Z,3.83
2023-05-24T17:36:14.331Z,4.00
2023-05-24T17:38:42.826Z,3.27
2023-05-24T17:41:11.517Z,3.77
2023-05-24T17:43:41.304Z,3.87
2023-05-24T17:46:10.558Z,3.47
2023-05-24T17:48:39.185Z,3.40
2023-05-24T17:51:08.758Z,4.00
2023-05-24T17:53:38.706Z,3.80
2023-05-24T17:56:06.836Z,4.13
2023-05-24T17:58:38.537Z,4.47
2023-05-24T18:01:07.912Z,3.87
2023-05-24T18:03:41.187Z,4.73
2023-05-24T18:06:09.593Z,3.93
2023-05-24T18:08:38.961Z,3.57
2023-05-24T18:11:12.105Z,3.73
2023-05-24T18:13:42.326Z,3.90
2023-05-24T18:16:11.589Z,4.10
2023-05-24T18:18:40.012Z,4.07
2023-05-24T18:21:10.115Z,4.90
2023-05-24T18:23:38.815Z,6.50
2023-05-24T18:26:10.733Z,6.43
2023-05-24T18:28:39.483Z,6.23
2023-05-24T18:31:10.088Z,5.90
2023-05-24T18:33:38.999Z,6.07
2023-05-24T18:38:35.550Z,6.08
2023-05-24T18:41:06.374Z,6.33
2023-05-24T18:43:35.475Z,6.33
2023-05-24T18:46:03.878Z,6.17
2023-05-24T18:48:32.476Z,6.50
2023-05-24T18:51:00.954Z,6.10
2023-05-24T18:53:29.616Z,6.53
2023-05-24T18:55:57.976Z,6.70
2023-05-24T18:58:26.684Z,11.20
2023-05-24T19:00:55.307Z,9.77
2023-05-24T19:03:23.878Z,9.77
2023-05-24T19:05:51.898Z,6.83
2023-05-24T19:08:20.204Z,7.13
2023-05-24T19:10:48.076Z,7.40
2023-05-24T19:13:16.050Z,6.83
2023-05-24T19:15:44.858Z,7.70
2023-05-24T19:18:13.502Z,6.87
2023-05-24T19:20:41.768Z,7.77
2023-05-24T19:23:10.687Z,7.40
2023-05-24T19:25:42.196Z,8.57
2023-05-24T19:28:11.956Z,10.60
2023-05-24T19:30:40.524Z,9.40
2023-05-24T19:33:08.923Z,8.60
2023-05-24T19:35:36.996Z,7.83
2023-05-24T19:38:05.552Z,8.27
2023-05-24T19:40:34.109Z,8.83
2023-05-24T19:43:02.164Z,8.30
2023-05-24T19:45:30.891Z,8.73
2023-05-24T19:47:59.748Z,7.70
2023-05-24T19:50:31.003Z,7.10
2023-05-24T19:52:58.479Z,7.63
2023-05-24T19:55:27.271Z,8.10
2023-05-24T19:57:55.882Z,9.50
2023-05-24T20:00:24.457Z,7.67
2023-05-24T20:02:52.555Z,6.50
2023-05-24T20:05:20.926Z,7.60
2023-05-24T20:07:49.415Z,6.83
2023-05-24T20:10:17.860Z,6.13
2023-05-24T20:12:46.068Z,5.33
2023-05-24T20:15:15.940Z,6.13
2023-05-24T20:17:45.584Z,6.07
2023-05-24T20:20:14.504Z,5.83
2023-05-24T20:22:42.519Z,5.43
2023-05-24T20:25:11.109Z,4.97
2023-05-24T20:27:41.755Z,4.53
2023-05-24T20:30:10.397Z,4.60
2023-05-24T20:32:39.038Z,5.43
2023-05-24T20:35:08.040Z,5.00
2023-05-24T20:37:37.203Z,5.20
2023-05-24T20:40:06.369Z,4.40
2023-05-24T20:42:35.089Z,4.47
2023-05-24T20:45:04.066Z,4.40
2023-05-24T20:47:33.377Z,4.03
2023-05-24T20:50:02.190Z,3.83
2023-05-24T20:52:31.159Z,3.93
2023-05-24T20:54:59.841Z,3.80
2023-05-24T20:57:28.433Z,3.90
2023-05-24T20:59:57.045Z,4.00
2023-05-24T21:02:28.149Z,3.50
2023-05-24T21:04:57.460Z,4.67
2023-05-24T21:07:26.814Z,4.03
2023-05-24T21:09:57.238Z,3.83
2023-05-24T21:12:25.271Z,3.57
2023-05-24T21:14:55.584Z,4.20
2023-05-24T21:17:25.439Z,4.50
2023-05-24T21:19:54.972Z,3.63
2023-05-24T21:22:23.013Z,3.97
2023-05-24T21:24:51.977Z,4.03
2023-05-24T21:27:20.957Z,4.10
2023-05-24T21:29:49.748Z,5.17
2023-05-24T21:32:20.055Z,5.40
2023-05-24T21:34:48.676Z,4.20
2023-05-24T21:37:17.861Z,3.63
2023-05-24T21:39:46.887Z,5.70
2023-05-24T21:42:15.564Z,16.97
2023-05-24T21:44:44.645Z,34.70
2023-05-24T21:47:12.959Z,41.37
2023-05-24T21:49:41.032Z,28.73
2023-05-24T21:52:08.952Z,50.13
2023-05-24T21:54:37.336Z,57.60
2023-05-24T21:57:07.314Z,62.03
2023-05-24T21:59:35.918Z,57.03
2023-05-24T22:02:04.413Z,40.83
2023-05-24T22:04:32.571Z,27.07
2023-05-24T22:07:00.882Z,24.10
2023-05-24T22:09:29.550Z,16.13
2023-05-24T22:11:57.531Z,12.57
2023-05-24T22:14:26.002Z,11.17
2023-05-24T22:16:54.563Z,12.07
2023-05-24T22:19:38.383Z,14.90
2023-05-24T22:21:56.743Z,15.30
2023-05-24T22:24:25.850Z,40.67
2023-05-24T22:26:54.439Z,47.63
2023-05-24T22:29:23.143Z,38.73
2023-05-24T22:31:51.555Z,41.27
2023-05-24T22:34:29.923Z,23.27
2023-05-24T22:36:58.162Z,19.80
2023-05-24T22:39:26.791Z,14.80
2023-05-24T22:41:54.778Z,19.33
2023-05-24T22:44:23.238Z,19.50
2023-05-24T22:46:53.273Z,18.77
2023-05-24T22:49:22.453Z,16.77
2023-05-24T22:51:51.097Z,16.27
2023-05-24T22:54:19.599Z,14.33
2023-05-24T22:56:47.697Z,13.37
2023-05-24T22:59:16.162Z,14.60
2023-05-24T23:01:45.426Z,16.20
2023-05-24T23:06:45.777Z,15.00
2023-05-24T23:09:14.102Z,13.93
2023-05-24T23:11:43.410Z,13.87
2023-05-24T23:14:11.984Z,13.23
2023-05-24T23:16:44.237Z,9.17
2023-05-24T23:19:13.573Z,9.20
2023-05-24T23:21:42.190Z,9.90
2023-05-24T23:24:16.492Z,8.67
2023-05-24T23:26:45.140Z,9.80
2023-05-24T23:29:13.586Z,6.93
2023-05-24T23:31:42.494Z,6.87
2023-05-24T23:34:10.998Z,7.40
2023-05-24T23:36:39.567Z,7.53
2023-05-24T23:39:10.317Z,7.43
2023-05-24T23:41:38.164Z,7.97
2023-05-24T23:44:07.056Z,8.07
2023-05-24T23:46:36.236Z,7.07
2023-05-24T23:49:05.162Z,6.90
2023-05-24T23:51:36.424Z,6.23
2023-05-24T23:54:04.972Z,6.13
2023-05-24T23:56:33.576Z,6.53
2023-05-24T23:59:02.636Z,6.20
